sensor_id;sensor_type;location;lat;lon;timestamp;P1;durP1;ratioP1;P2;durP2;ratioP2
9974;SDS011;5028;50.974;4.968;2023-02-01T00:01:20;16.53;;;6.20;;
9974;SDS011;5028;50.974;4.968;2023-02-01T00:03:55;12.70;;;5.73;;
9974;SDS011;5028;50.974;4.968;2023-02-01T00:06:24;15.60;;;6.03;;
9974;SDS011;5028;50.974;4.968;2023-02-01T00:09:05;16.30;;;5.77;;
9974;SDS011;5028;50.974;4.968;2023-02-01T00:11:49;14.70;;;5.60;;
9974;SDS011;5028;50.974;4.968;2023-02-01T00:14:24;12.57;;;5.33;;
9974;SDS011;5028;50.974;4.968;2023-02-01T00:16:53;14.13;;;4.70;;
9974;SDS011;5028;50.974;4.968;2023-02-01T00:19:28;16.43;;;5.60;;
9974;SDS011;5028;50.974;4.968;2023-02-01T00:21:56;15.50;;;5.20;;
9974;SDS011;5028;50.974;4.968;2023-02-01T00:24:32;10.83;;;4.77;;
9974;SDS011;5028;50.974;4.968;2023-02-01T00:27:02;15.97;;;5.30;;
9974;SDS011;5028;50.974;4.968;2023-02-01T00:29:37;15.93;;;4.77;;
9974;SDS011;5028;50.974;4.968;2023-02-01T00:32:06;14.70;;;5.00;;
9974;SDS011;5028;50.974;4.968;2023-02-01T00:34:41;12.30;;;4.87;;
9974;SDS011;5028;50.974;4.968;2023-02-01T00:37:10;17.70;;;5.03;;
9974;SDS011;5028;50.974;4.968;2023-02-01T00:39:45;15.83;;;4.73;;
9974;SDS011;5028;50.974;4.968;2023-02-01T00:42:16;12.87;;;4.57;;
9974;SDS011;5028;50.974;4.968;2023-02-01T00:44:50;18.13;;;4.63;;
9974;SDS011;5028;50.974;4.968;2023-02-01T00:47:19;16.23;;;4.77;;
9974;SDS011;5028;50.974;4.968;2023-02-01T00:49:53;14.27;;;4.40;;
9974;SDS011;5028;50.974;4.968;2023-02-01T00:52:22;11.73;;;4.30;;
9974;SDS011;5028;50.974;4.968;2023-02-01T00:54:57;14.50;;;4.37;;
9974;SDS011;5028;50.974;4.968;2023-02-01T00:57:27;15.97;;;4.77;;
9974;SDS011;5028;50.974;4.968;2023-02-01T01:00:02;14.70;;;4.30;;
9974;SDS011;5028;50.974;4.968;2023-02-01T01:02:31;14.73;;;4.40;;
9974;SDS011;5028;50.974;4.968;2023-02-01T01:05:06;12.03;;;4.53;;
9974;SDS011;5028;50.974;4.968;2023-02-01T01:07:35;12.17;;;4.23;;
9974;SDS011;5028;50.974;4.968;2023-02-01T01:10:17;16.83;;;4.80;;
9974;SDS011;5028;50.974;4.968;2023-02-01T01:12:47;19.47;;;4.67;;
9974;SDS011;5028;50.974;4.968;2023-02-01T01:15:23;13.20;;;3.93;;
9974;SDS011;5028;50.974;4.968;2023-02-01T01:17:52;16.37;;;5.20;;
9974;SDS011;5028;50.974;4.968;2023-02-01T01:20:27;14.13;;;4.73;;
9974;SDS011;5028;50.974;4.968;2023-02-01T01:22:56;18.00;;;4.77;;
9974;SDS011;5028;50.974;4.968;2023-02-01T01:25:32;16.97;;;4.97;;
9974;SDS011;5028;50.974;4.968;2023-02-01T01:28:12;11.47;;;4.70;;
9974;SDS011;5028;50.974;4.968;2023-02-01T01:30:40;16.73;;;4.70;;
9974;SDS011;5028;50.974;4.968;2023-02-01T01:33:16;13.00;;;4.13;;
9974;SDS011;5028;50.974;4.968;2023-02-01T01:35:44;13.87;;;4.63;;
9974;SDS011;5028;50.974;4.968;2023-02-01T01:38:20;18.70;;;4.17;;
9974;SDS011;5028;50.974;4.968;2023-02-01T01:40:48;11.67;;;4.37;;
9974;SDS011;5028;50.974;4.968;2023-02-01T01:43:25;11.70;;;4.40;;
9974;SDS011;5028;50.974;4.968;2023-02-01T01:46:08;17.77;;;4.87;;
9974;SDS011;5028;50.974;4.968;2023-02-01T01:48:43;15.33;;;4.53;;
9974;SDS011;5028;50.974;4.968;2023-02-01T01:51:12;13.30;;;4.13;;
9974;SDS011;5028;50.974;4.968;2023-02-01T01:53:55;16.53;;;4.70;;
9974;SDS011;5028;50.974;4.968;2023-02-01T01:56:27;14.83;;;4.60;;
9974;SDS011;5028;50.974;4.968;2023-02-01T01:59:06;14.17;;;4.30;;
9974;SDS011;5028;50.974;4.968;2023-02-01T02:04:08;16.43;;;4.27;;
9974;SDS011;5028;50.974;4.968;2023-02-01T02:06:45;13.40;;;3.97;;
9974;SDS011;5028;50.974;4.968;2023-02-01T02:09:25;12.93;;;4.60;;
9974;SDS011;5028;50.974;4.968;2023-02-01T02:11:54;11.80;;;3.80;;
9974;SDS011;5028;50.974;4.968;2023-02-01T02:14:31;14.10;;;4.67;;
9974;SDS011;5028;50.974;4.968;2023-02-01T02:17:11;14.30;;;4.10;;
9974;SDS011;5028;50.974;4.968;2023-02-01T02:23:14;16.63;;;4.30;;
9974;SDS011;5028;50.974;4.968;2023-02-01T02:26:11;15.00;;;3.70;;
9974;SDS011;5028;50.974;4.968;2023-02-01T02:32:01;16.43;;;4.20;;
9974;SDS011;5028;50.974;4.968;2023-02-01T02:34:49;15.33;;;4.10;;
9974;SDS011;5028;50.974;4.968;2023-02-01T02:37:32;12.83;;;3.40;;
9974;SDS011;5028;50.974;4.968;2023-02-01T02:40:07;11.87;;;3.43;;
9974;SDS011;5028;50.974;4.968;2023-02-01T02:42:50;14.23;;;3.60;;
9974;SDS011;5028;50.974;4.968;2023-02-01T02:45:44;16.07;;;4.67;;
9974;SDS011;5028;50.974;4.968;2023-02-01T02:48:43;15.50;;;4.30;;
9974;SDS011;5028;50.974;4.968;2023-02-01T02:51:17;12.77;;;3.37;;
9974;SDS011;5028;50.974;4.968;2023-02-01T02:54:14;9.43;;;3.57;;
9974;SDS011;5028;50.974;4.968;2023-02-01T02:57:03;15.50;;;3.83;;
9974;SDS011;5028;50.974;4.968;2023-02-01T03:00:00;11.90;;;3.47;;
9974;SDS011;5028;50.974;4.968;2023-02-01T03:02:50;14.70;;;4.00;;
9974;SDS011;5028;50.974;4.968;2023-02-01T03:05:49;14.03;;;4.00;;
9974;SDS011;5028;50.974;4.968;2023-02-01T03:08:21;14.13;;;3.90;;
9974;SDS011;5028;50.974;4.968;2023-02-01T03:10:57;14.77;;;3.90;;
9974;SDS011;5028;50.974;4.968;2023-02-01T03:13:33;13.07;;;4.03;;
9974;SDS011;5028;50.974;4.968;2023-02-01T03:16:15;15.17;;;3.80;;
9974;SDS011;5028;50.974;4.968;2023-02-01T03:18:54;16.10;;;4.33;;
9974;SDS011;5028;50.974;4.968;2023-02-01T03:21:34;11.60;;;3.57;;
9974;SDS011;5028;50.974;4.968;2023-02-01T03:24:08;14.27;;;4.07;;
9974;SDS011;5028;50.974;4.968;2023-02-01T03:26:47;17.00;;;4.10;;
9974;SDS011;5028;50.974;4.968;2023-02-01T03:29:21;15.00;;;3.53;;
9974;SDS011;5028;50.974;4.968;2023-02-01T03:32:01;18.17;;;4.20;;
9974;SDS011;5028;50.974;4.968;2023-02-01T03:34:30;13.37;;;4.10;;
9974;SDS011;5028;50.974;4.968;2023-02-01T03:37:06;18.40;;;4.53;;
9974;SDS011;5028;50.974;4.968;2023-02-01T03:39:41;12.50;;;3.27;;
9974;SDS011;5028;50.974;4.968;2023-02-01T03:42:21;14.57;;;4.47;;
9974;SDS011;5028;50.974;4.968;2023-02-01T03:44:57;14.17;;;4.03;;
9974;SDS011;5028;50.974;4.968;2023-02-01T03:47:39;16.00;;;3.80;;
9974;SDS011;5028;50.974;4.968;2023-02-01T03:50:14;12.73;;;3.90;;
9974;SDS011;5028;50.974;4.968;2023-02-01T03:52:51;14.53;;;4.10;;
9974;SDS011;5028;50.974;4.968;2023-02-01T03:55:25;13.50;;;3.70;;
9974;SDS011;5028;50.974;4.968;2023-02-01T03:58:02;14.10;;;3.70;;
9974;SDS011;5028;50.974;4.968;2023-02-01T04:00:35;14.13;;;3.67;;
9974;SDS011;5028;50.974;4.968;2023-02-01T04:03:10;15.93;;;4.53;;
9974;SDS011;5028;50.974;4.968;2023-02-01T04:05:52;14.93;;;4.30;;
9974;SDS011;5028;50.974;4.968;2023-02-01T04:08:28;12.70;;;3.93;;
9974;SDS011;5028;50.974;4.968;2023-02-01T04:10:59;13.77;;;4.40;;
9974;SDS011;5028;50.974;4.968;2023-02-01T04:13:33;13.60;;;4.43;;
9974;SDS011;5028;50.974;4.968;2023-02-01T04:16:02;15.87;;;4.50;;
9974;SDS011;5028;50.974;4.968;2023-02-01T04:18:39;15.23;;;4.40;;
9974;SDS011;5028;50.974;4.968;2023-02-01T04:21:07;15.23;;;3.60;;
9974;SDS011;5028;50.974;4.968;2023-02-01T04:23:42;15.13;;;4.20;;
9974;SDS011;5028;50.974;4.968;2023-02-01T04:26:12;13.67;;;4.37;;
9974;SDS011;5028;50.974;4.968;2023-02-01T04:28:49;12.90;;;3.80;;
9974;SDS011;5028;50.974;4.968;2023-02-01T04:31:19;13.97;;;4.13;;
9974;SDS011;5028;50.974;4.968;2023-02-01T04:33:58;14.87;;;4.43;;
9974;SDS011;5028;50.974;4.968;2023-02-01T04:36:26;13.23;;;4.30;;
9974;SDS011;5028;50.974;4.968;2023-02-01T04:39:01;12.80;;;4.27;;
9974;SDS011;5028;50.974;4.968;2023-02-01T04:41:32;11.93;;;3.93;;
9974;SDS011;5028;50.974;4.968;2023-02-01T04:44:08;10.93;;;3.83;;
9974;SDS011;5028;50.974;4.968;2023-02-01T04:46:40;14.87;;;3.87;;
9974;SDS011;5028;50.974;4.968;2023-02-01T04:49:16;19.57;;;4.67;;
9974;SDS011;5028;50.974;4.968;2023-02-01T04:51:44;14.43;;;4.03;;
9974;SDS011;5028;50.974;4.968;2023-02-01T04:54:19;13.97;;;4.40;;
9974;SDS011;5028;50.974;4.968;2023-02-01T04:56:49;17.53;;;4.47;;
9974;SDS011;5028;50.974;4.968;2023-02-01T04:59:24;14.60;;;4.00;;
9974;SDS011;5028;50.974;4.968;2023-02-01T05:01:52;15.37;;;4.50;;
9974;SDS011;5028;50.974;4.968;2023-02-01T05:04:28;12.60;;;4.03;;
9974;SDS011;5028;50.974;4.968;2023-02-01T05:07:10;15.57;;;3.80;;
9974;SDS011;5028;50.974;4.968;2023-02-01T05:09:38;13.97;;;4.47;;
9974;SDS011;5028;50.974;4.968;2023-02-01T05:12:15;14.17;;;4.43;;
9974;SDS011;5028;50.974;4.968;2023-02-01T05:15:01;18.23;;;4.70;;
9974;SDS011;5028;50.974;4.968;2023-02-01T05:17:37;18.90;;;4.33;;
9974;SDS011;5028;50.974;4.968;2023-02-01T05:20:07;18.93;;;4.63;;
9974;SDS011;5028;50.974;4.968;2023-02-01T05:22:44;13.30;;;3.87;;
9974;SDS011;5028;50.974;4.968;2023-02-01T05:25:12;13.43;;;4.40;;
9974;SDS011;5028;50.974;4.968;2023-02-01T05:27:49;19.73;;;4.60;;
9974;SDS011;5028;50.974;4.968;2023-02-01T05:30:18;15.80;;;4.50;;
9974;SDS011;5028;50.974;4.968;2023-02-01T05:32:53;17.07;;;4.30;;
9974;SDS011;5028;50.974;4.968;2023-02-01T05:35:21;12.43;;;4.33;;
9974;SDS011;5028;50.974;4.968;2023-02-01T05:37:56;12.73;;;4.67;;
9974;SDS011;5028;50.974;4.968;2023-02-01T05:40:25;17.37;;;4.27;;
9974;SDS011;5028;50.974;4.968;2023-02-01T05:43:01;16.27;;;3.80;;
9974;SDS011;5028;50.974;4.968;2023-02-01T05:45:30;13.00;;;4.30;;
9974;SDS011;5028;50.974;4.968;2023-02-01T05:48:05;15.20;;;4.67;;
9974;SDS011;5028;50.974;4.968;2023-02-01T05:50:33;13.63;;;3.87;;
9974;SDS011;5028;50.974;4.968;2023-02-01T05:53:08;16.83;;;5.10;;
9974;SDS011;5028;50.974;4.968;2023-02-01T05:55:36;14.53;;;4.97;;
9974;SDS011;5028;50.974;4.968;2023-02-01T05:58:13;19.43;;;4.60;;
9974;SDS011;5028;50.974;4.968;2023-02-01T06:00:42;13.27;;;3.97;;
9974;SDS011;5028;50.974;4.968;2023-02-01T06:03:24;14.40;;;4.27;;
9974;SDS011;5028;50.974;4.968;2023-02-01T06:06:06;19.50;;;4.10;;
9974;SDS011;5028;50.974;4.968;2023-02-01T06:08:41;18.63;;;4.17;;
9974;SDS011;5028;50.974;4.968;2023-02-01T06:11:09;18.23;;;4.23;;
9974;SDS011;5028;50.974;4.968;2023-02-01T06:13:59;15.60;;;3.93;;
9974;SDS011;5028;50.974;4.968;2023-02-01T06:16:27;17.13;;;4.60;;
9974;SDS011;5028;50.974;4.968;2023-02-01T06:19:02;15.30;;;3.87;;
9974;SDS011;5028;50.974;4.968;2023-02-01T06:21:31;16.67;;;3.70;;
9974;SDS011;5028;50.974;4.968;2023-02-01T06:24:07;17.63;;;4.40;;
9974;SDS011;5028;50.974;4.968;2023-02-01T06:26:36;17.70;;;4.73;;
9974;SDS011;5028;50.974;4.968;2023-02-01T06:29:13;15.80;;;3.93;;
9974;SDS011;5028;50.974;4.968;2023-02-01T06:31:41;17.23;;;4.33;;
9974;SDS011;5028;50.974;4.968;2023-02-01T06:34:17;15.30;;;3.73;;
9974;SDS011;5028;50.974;4.968;2023-02-01T06:36:47;13.93;;;3.97;;
9974;SDS011;5028;50.974;4.968;2023-02-01T06:39:21;13.90;;;3.83;;
9974;SDS011;5028;50.974;4.968;2023-02-01T06:41:50;13.57;;;3.90;;
9974;SDS011;5028;50.974;4.968;2023-02-01T06:44:26;13.87;;;4.47;;
9974;SDS011;5028;50.974;4.968;2023-02-01T06:46:55;16.27;;;4.23;;
9974;SDS011;5028;50.974;4.968;2023-02-01T06:49:34;15.90;;;4.13;;
9974;SDS011;5028;50.974;4.968;2023-02-01T06:52:03;13.47;;;3.73;;
9974;SDS011;5028;50.974;4.968;2023-02-01T06:54:39;12.73;;;4.00;;
9974;SDS011;5028;50.974;4.968;2023-02-01T06:57:07;16.83;;;4.57;;
9974;SDS011;5028;50.974;4.968;2023-02-01T06:59:43;15.63;;;4.00;;
9974;SDS011;5028;50.974;4.968;2023-02-01T07:02:12;14.50;;;3.73;;
9974;SDS011;5028;50.974;4.968;2023-02-01T07:04:53;14.60;;;4.07;;
9974;SDS011;5028;50.974;4.968;2023-02-01T07:07:22;23.00;;;5.00;;
9974;SDS011;5028;50.974;4.968;2023-02-01T07:09:57;15.33;;;4.23;;
9974;SDS011;5028;50.974;4.968;2023-02-01T07:12:25;16.00;;;3.90;;
9974;SDS011;5028;50.974;4.968;2023-02-01T07:15:01;16.13;;;4.20;;
9974;SDS011;5028;50.974;4.968;2023-02-01T07:17:30;17.97;;;4.67;;
9974;SDS011;5028;50.974;4.968;2023-02-01T07:20:05;14.37;;;4.27;;
9974;SDS011;5028;50.974;4.968;2023-02-01T07:22:35;13.80;;;4.40;;
9974;SDS011;5028;50.974;4.968;2023-02-01T07:25:10;15.17;;;4.23;;
9974;SDS011;5028;50.974;4.968;2023-02-01T07:27:38;16.50;;;3.87;;
9974;SDS011;5028;50.974;4.968;2023-02-01T07:30:14;16.67;;;4.17;;
9974;SDS011;5028;50.974;4.968;2023-02-01T07:32:43;17.37;;;4.03;;
9974;SDS011;5028;50.974;4.968;2023-02-01T07:35:18;14.20;;;4.20;;
9974;SDS011;5028;50.974;4.968;2023-02-01T07:37:46;22.17;;;4.37;;
9974;SDS011;5028;50.974;4.968;2023-02-01T07:40:21;16.20;;;5.17;;
9974;SDS011;5028;50.974;4.968;2023-02-01T07:42:55;17.57;;;4.80;;
9974;SDS011;5028;50.974;4.968;2023-02-01T07:45:32;17.53;;;4.20;;
9974;SDS011;5028;50.974;4.968;2023-02-01T07:48:02;16.23;;;4.10;;
9974;SDS011;5028;50.974;4.968;2023-02-01T07:50:39;14.30;;;3.67;;
9974;SDS011;5028;50.974;4.968;2023-02-01T07:53:07;15.50;;;4.63;;
9974;SDS011;5028;50.974;4.968;2023-02-01T07:55:43;12.63;;;4.00;;
9974;SDS011;5028;50.974;4.968;2023-02-01T07:58:11;17.93;;;3.83;;
9974;SDS011;5028;50.974;4.968;2023-02-01T08:00:48;16.83;;;4.00;;
9974;SDS011;5028;50.974;4.968;2023-02-01T08:03:35;17.70;;;4.43;;
9974;SDS011;5028;50.974;4.968;2023-02-01T08:06:11;12.07;;;3.43;;
9974;SDS011;5028;50.974;4.968;2023-02-01T08:08:39;16.07;;;4.57;;
9974;SDS011;5028;50.974;4.968;2023-02-01T08:11:15;13.20;;;4.20;;
9974;SDS011;5028;50.974;4.968;2023-02-01T08:13:44;15.10;;;3.40;;
9974;SDS011;5028;50.974;4.968;2023-02-01T08:16:23;17.13;;;4.17;;
9974;SDS011;5028;50.974;4.968;2023-02-01T08:18:53;14.77;;;3.87;;
9974;SDS011;5028;50.974;4.968;2023-02-01T08:21:28;16.60;;;4.03;;
9974;SDS011;5028;50.974;4.968;2023-02-01T08:24:04;13.87;;;4.13;;
9974;SDS011;5028;50.974;4.968;2023-02-01T08:26:40;11.77;;;3.53;;
9974;SDS011;5028;50.974;4.968;2023-02-01T08:29:09;12.97;;;3.73;;
9974;SDS011;5028;50.974;4.968;2023-02-01T08:31:46;11.90;;;3.97;;
9974;SDS011;5028;50.974;4.968;2023-02-01T08:34:15;13.90;;;3.70;;
9974;SDS011;5028;50.974;4.968;2023-02-01T08:36:50;12.73;;;4.10;;
9974;SDS011;5028;50.974;4.968;2023-02-01T08:39:31;14.40;;;4.20;;
9974;SDS011;5028;50.974;4.968;2023-02-01T08:41:59;14.87;;;4.90;;
9974;SDS011;5028;50.974;4.968;2023-02-01T08:44:52;15.63;;;4.70;;
9974;SDS011;5028;50.974;4.968;2023-02-01T08:47:22;14.50;;;4.60;;
9974;SDS011;5028;50.974;4.968;2023-02-01T08:49:57;13.00;;;3.50;;
9974;SDS011;5028;50.974;4.968;2023-02-01T08:52:25;15.20;;;3.80;;
9974;SDS011;5028;50.974;4.968;2023-02-01T08:55:03;13.57;;;3.50;;
9974;SDS011;5028;50.974;4.968;2023-02-01T08:57:33;16.53;;;4.13;;
9974;SDS011;5028;50.974;4.968;2023-02-01T09:00:10;12.03;;;4.43;;
9974;SDS011;5028;50.974;4.968;2023-02-01T09:02:43;12.43;;;3.63;;
9974;SDS011;5028;50.974;4.968;2023-02-01T09:05:24;15.73;;;4.03;;
9974;SDS011;5028;50.974;4.968;2023-02-01T09:08:14;12.80;;;3.67;;
9974;SDS011;5028;50.974;4.968;2023-02-01T09:10:52;15.43;;;3.40;;
9974;SDS011;5028;50.974;4.968;2023-02-01T09:13:20;21.90;;;4.80;;
9974;SDS011;5028;50.974;4.968;2023-02-01T09:15:55;18.17;;;5.50;;
9974;SDS011;5028;50.974;4.968;2023-02-01T09:18:27;14.07;;;4.07;;
9974;SDS011;5028;50.974;4.968;2023-02-01T09:21:21;13.73;;;4.03;;
9974;SDS011;5028;50.974;4.968;2023-02-01T09:23:50;16.30;;;4.37;;
9974;SDS011;5028;50.974;4.968;2023-02-01T09:26:25;14.27;;;4.43;;
9974;SDS011;5028;50.974;4.968;2023-02-01T09:28:58;14.23;;;3.97;;
9974;SDS011;5028;50.974;4.968;2023-02-01T09:31:33;14.50;;;4.13;;
9974;SDS011;5028;50.974;4.968;2023-02-01T09:34:04;12.43;;;3.77;;
9974;SDS011;5028;50.974;4.968;2023-02-01T09:36:40;13.83;;;3.87;;
9974;SDS011;5028;50.974;4.968;2023-02-01T09:39:08;18.23;;;4.17;;
9974;SDS011;5028;50.974;4.968;2023-02-01T09:41:48;18.17;;;4.07;;
9974;SDS011;5028;50.974;4.968;2023-02-01T09:44:25;13.03;;;4.03;;
9974;SDS011;5028;50.974;4.968;2023-02-01T09:47:13;14.60;;;4.37;;
9974;SDS011;5028;50.974;4.968;2023-02-01T09:49:48;15.33;;;4.67;;
9974;SDS011;5028;50.974;4.968;2023-02-01T09:52:29;15.47;;;4.03;;
9974;SDS011;5028;50.974;4.968;2023-02-01T09:55:04;16.30;;;3.73;;
9974;SDS011;5028;50.974;4.968;2023-02-01T09:57:46;15.30;;;4.40;;
9974;SDS011;5028;50.974;4.968;2023-02-01T10:00:22;12.03;;;4.17;;
9974;SDS011;5028;50.974;4.968;2023-02-01T10:03:09;12.20;;;3.60;;
9974;SDS011;5028;50.974;4.968;2023-02-01T10:09:05;16.20;;;4.00;;
9974;SDS011;5028;50.974;4.968;2023-02-01T10:11:54;12.93;;;3.77;;
9974;SDS011;5028;50.974;4.968;2023-02-01T10:14:38;11.77;;;3.40;;
9974;SDS011;5028;50.974;4.968;2023-02-01T10:17:25;15.23;;;4.17;;
9974;SDS011;5028;50.974;4.968;2023-02-01T10:20:08;13.23;;;4.43;;
9974;SDS011;5028;50.974;4.968;2023-02-01T10:22:52;11.57;;;3.60;;
9974;SDS011;5028;50.974;4.968;2023-02-01T10:25:59;13.47;;;3.60;;
9974;SDS011;5028;50.974;4.968;2023-02-01T10:28:34;12.20;;;3.53;;
9974;SDS011;5028;50.974;4.968;2023-02-01T10:31:13;13.40;;;3.63;;
9974;SDS011;5028;50.974;4.968;2023-02-01T10:33:44;15.30;;;4.30;;
9974;SDS011;5028;50.974;4.968;2023-02-01T10:36:21;15.97;;;3.80;;
9974;SDS011;5028;50.974;4.968;2023-02-01T10:38:58;14.73;;;4.60;;
9974;SDS011;5028;50.974;4.968;2023-02-01T10:41:33;13.23;;;3.57;;
9974;SDS011;5028;50.974;4.968;2023-02-01T10:44:07;12.57;;;3.70;;
9974;SDS011;5028;50.974;4.968;2023-02-01T10:46:52;13.17;;;4.07;;
9974;SDS011;5028;50.974;4.968;2023-02-01T10:49:22;13.10;;;3.77;;
9974;SDS011;5028;50.974;4.968;2023-02-01T10:52:03;9.43;;;3.17;;
9974;SDS011;5028;50.974;4.968;2023-02-01T10:54:48;13.83;;;3.97;;
9974;SDS011;5028;50.974;4.968;2023-02-01T10:57:20;11.60;;;3.57;;
9974;SDS011;5028;50.974;4.968;2023-02-01T10:59:59;12.93;;;3.93;;
9974;SDS011;5028;50.974;4.968;2023-02-01T11:02:31;14.63;;;3.83;;
9974;SDS011;5028;50.974;4.968;2023-02-01T11:05:15;11.83;;;3.37;;
9974;SDS011;5028;50.974;4.968;2023-02-01T11:07:59;13.53;;;3.37;;
9974;SDS011;5028;50.974;4.968;2023-02-01T11:10:38;13.03;;;3.40;;
9974;SDS011;5028;50.974;4.968;2023-02-01T11:13:11;14.23;;;4.20;;
9974;SDS011;5028;50.974;4.968;2023-02-01T11:15:54;13.10;;;3.87;;
9974;SDS011;5028;50.974;4.968;2023-02-01T11:18:27;16.33;;;3.90;;
9974;SDS011;5028;50.974;4.968;2023-02-01T11:21:03;10.90;;;3.80;;
9974;SDS011;5028;50.974;4.968;2023-02-01T11:23:32;14.97;;;4.20;;
9974;SDS011;5028;50.974;4.968;2023-02-01T11:26:19;16.90;;;4.17;;
9974;SDS011;5028;50.974;4.968;2023-02-01T11:28:51;9.47;;;3.40;;
9974;SDS011;5028;50.974;4.968;2023-02-01T11:31:28;10.43;;;3.43;;
9974;SDS011;5028;50.974;4.968;2023-02-01T11:33:58;10.77;;;3.20;;
9974;SDS011;5028;50.974;4.968;2023-02-01T11:36:41;13.90;;;3.50;;
9974;SDS011;5028;50.974;4.968;2023-02-01T11:39:18;9.87;;;3.37;;
9974;SDS011;5028;50.974;4.968;2023-02-01T11:42:00;11.30;;;3.97;;
9974;SDS011;5028;50.974;4.968;2023-02-01T11:44:41;10.57;;;3.50;;
9974;SDS011;5028;50.974;4.968;2023-02-01T11:47:22;9.93;;;3.43;;
9974;SDS011;5028;50.974;4.968;2023-02-01T11:49:52;14.20;;;4.37;;
9974;SDS011;5028;50.974;4.968;2023-02-01T11:52:36;12.60;;;3.20;;
9974;SDS011;5028;50.974;4.968;2023-02-01T11:55:23;9.03;;;2.80;;
9974;SDS011;5028;50.974;4.968;2023-02-01T11:58:22;10.30;;;2.97;;
9974;SDS011;5028;50.974;4.968;2023-02-01T12:07:36;7.20;;;2.67;;
9974;SDS011;5028;50.974;4.968;2023-02-01T12:10:28;8.13;;;3.13;;
9974;SDS011;5028;50.974;4.968;2023-02-01T12:13:09;9.43;;;2.87;;
9974;SDS011;5028;50.974;4.968;2023-02-01T12:16:06;6.67;;;2.93;;
9974;SDS011;5028;50.974;4.968;2023-02-01T12:21:58;9.40;;;3.20;;
9974;SDS011;5028;50.974;4.968;2023-02-01T12:24:46;10.70;;;2.80;;
9974;SDS011;5028;50.974;4.968;2023-02-01T12:27:46;8.90;;;2.73;;
9974;SDS011;5028;50.974;4.968;2023-02-01T12:30:38;9.20;;;2.50;;
9974;SDS011;5028;50.974;4.968;2023-02-01T12:33:31;9.37;;;2.77;;
9974;SDS011;5028;50.974;4.968;2023-02-01T12:36:09;14.50;;;3.47;;
9974;SDS011;5028;50.974;4.968;2023-02-01T12:38:54;7.97;;;2.70;;
9974;SDS011;5028;50.974;4.968;2023-02-01T12:41:37;10.87;;;2.90;;
9974;SDS011;5028;50.974;4.968;2023-02-01T12:44:25;12.20;;;3.70;;
9974;SDS011;5028;50.974;4.968;2023-02-01T12:47:00;9.87;;;3.03;;
9974;SDS011;5028;50.974;4.968;2023-02-01T12:49:46;11.83;;;3.77;;
9974;SDS011;5028;50.974;4.968;2023-02-01T12:52:19;10.23;;;3.40;;
9974;SDS011;5028;50.974;4.968;2023-02-01T12:55:02;6.50;;;2.20;;
9974;SDS011;5028;50.974;4.968;2023-02-01T12:57:35;10.43;;;3.07;;
9974;SDS011;5028;50.974;4.968;2023-02-01T13:00:17;7.47;;;2.30;;
9974;SDS011;5028;50.974;4.968;2023-02-01T13:02:59;10.37;;;3.03;;
9974;SDS011;5028;50.974;4.968;2023-02-01T13:05:34;10.17;;;3.10;;
9974;SDS011;5028;50.974;4.968;2023-02-01T13:08:26;9.97;;;2.13;;
9974;SDS011;5028;50.974;4.968;2023-02-01T13:11:04;5.83;;;2.00;;
9974;SDS011;5028;50.974;4.968;2023-02-01T13:13:48;8.97;;;2.53;;
9974;SDS011;5028;50.974;4.968;2023-02-01T13:16:25;12.40;;;3.37;;
9974;SDS011;5028;50.974;4.968;2023-02-01T13:19:05;7.97;;;2.93;;
9974;SDS011;5028;50.974;4.968;2023-02-01T13:21:41;11.03;;;2.87;;
9974;SDS011;5028;50.974;4.968;2023-02-01T13:24:24;9.17;;;2.50;;
9974;SDS011;5028;50.974;4.968;2023-02-01T13:27:00;8.67;;;2.60;;
9974;SDS011;5028;50.974;4.968;2023-02-01T13:29:44;9.53;;;2.37;;
9974;SDS011;5028;50.974;4.968;2023-02-01T13:32:25;10.70;;;2.53;;
9974;SDS011;5028;50.974;4.968;2023-02-01T13:38:58;11.67;;;2.70;;
9974;SDS011;5028;50.974;4.968;2023-02-01T13:41:51;8.93;;;2.70;;
9974;SDS011;5028;50.974;4.968;2023-02-01T13:44:24;9.23;;;2.90;;
9974;SDS011;5028;50.974;4.968;2023-02-01T13:47:02;6.43;;;2.90;;
9974;SDS011;5028;50.974;4.968;2023-02-01T13:49:40;11.40;;;3.13;;
9974;SDS011;5028;50.974;4.968;2023-02-01T13:52:23;8.23;;;2.40;;
9974;SDS011;5028;50.974;4.968;2023-02-01T13:55:15;9.23;;;3.00;;
9974;SDS011;5028;50.974;4.968;2023-02-01T13:57:59;9.83;;;2.50;;
9974;SDS011;5028;50.974;4.968;2023-02-01T14:00:41;8.07;;;2.50;;
9974;SDS011;5028;50.974;4.968;2023-02-01T14:03:14;8.17;;;2.57;;
9974;SDS011;5028;50.974;4.968;2023-02-01T14:06:02;10.13;;;2.50;;
9974;SDS011;5028;50.974;4.968;2023-02-01T14:08:45;7.93;;;2.30;;
9974;SDS011;5028;50.974;4.968;2023-02-01T14:11:43;8.10;;;2.47;;
9974;SDS011;5028;50.974;4.968;2023-02-01T14:23:55;10.50;;;3.17;;
9974;SDS011;5028;50.974;4.968;2023-02-01T14:26:26;8.23;;;2.13;;
9974;SDS011;5028;50.974;4.968;2023-02-01T14:29:25;12.43;;;2.67;;
9974;SDS011;5028;50.974;4.968;2023-02-01T14:32:01;7.70;;;2.17;;
9974;SDS011;5028;50.974;4.968;2023-02-01T14:34:48;11.87;;;2.80;;
9974;SDS011;5028;50.974;4.968;2023-02-01T14:37:24;10.27;;;2.50;;
9974;SDS011;5028;50.974;4.968;2023-02-01T14:40:04;13.40;;;2.80;;
9974;SDS011;5028;50.974;4.968;2023-02-01T14:42:37;9.47;;;2.70;;
9974;SDS011;5028;50.974;4.968;2023-02-01T14:51:21;6.27;;;2.10;;
9974;SDS011;5028;50.974;4.968;2023-02-01T14:53:51;8.50;;;2.73;;
9974;SDS011;5028;50.974;4.968;2023-02-01T14:56:26;11.40;;;3.30;;
9974;SDS011;5028;50.974;4.968;2023-02-01T14:58:56;10.47;;;2.80;;
9974;SDS011;5028;50.974;4.968;2023-02-01T15:01:39;10.00;;;3.07;;
9974;SDS011;5028;50.974;4.968;2023-02-01T15:04:18;9.63;;;2.70;;
9974;SDS011;5028;50.974;4.968;2023-02-01T15:07:07;11.87;;;2.37;;
9974;SDS011;5028;50.974;4.968;2023-02-01T15:09:42;9.97;;;2.97;;
9974;SDS011;5028;50.974;4.968;2023-02-01T15:12:23;7.83;;;2.40;;
9974;SDS011;5028;50.974;4.968;2023-02-01T15:15:08;8.57;;;2.63;;
9974;SDS011;5028;50.974;4.968;2023-02-01T15:17:52;11.80;;;2.70;;
9974;SDS011;5028;50.974;4.968;2023-02-01T15:20:22;10.93;;;2.70;;
9974;SDS011;5028;50.974;4.968;2023-02-01T15:22:59;11.53;;;3.23;;
9974;SDS011;5028;50.974;4.968;2023-02-01T15:25:30;11.93;;;3.13;;
9974;SDS011;5028;50.974;4.968;2023-02-01T15:28:09;8.60;;;2.67;;
9974;SDS011;5028;50.974;4.968;2023-02-01T15:30:51;10.03;;;3.03;;
9974;SDS011;5028;50.974;4.968;2023-02-01T15:33:29;10.57;;;3.20;;
9974;SDS011;5028;50.974;4.968;2023-02-01T15:36:07;10.93;;;2.90;;
9974;SDS011;5028;50.974;4.968;2023-02-01T15:38:44;8.87;;;2.50;;
9974;SDS011;5028;50.974;4.968;2023-02-01T15:41:13;12.80;;;3.27;;
9974;SDS011;5028;50.974;4.968;2023-02-01T15:43:50;8.50;;;2.90;;
9974;SDS011;5028;50.974;4.968;2023-02-01T15:46:33;10.13;;;2.90;;
9974;SDS011;5028;50.974;4.968;2023-02-01T15:49:18;11.27;;;2.80;;
9974;SDS011;5028;50.974;4.968;2023-02-01T15:51:51;13.17;;;3.70;;
9974;SDS011;5028;50.974;4.968;2023-02-01T15:54:28;10.10;;;2.80;;
9974;SDS011;5028;50.974;4.968;2023-02-01T15:57:00;10.43;;;3.07;;
9974;SDS011;5028;50.974;4.968;2023-02-01T15:59:40;9.37;;;3.03;;
9974;SDS011;5028;50.974;4.968;2023-02-01T16:02:24;15.63;;;3.37;;
9974;SDS011;5028;50.974;4.968;2023-02-01T16:05:03;8.80;;;2.30;;
9974;SDS011;5028;50.974;4.968;2023-02-01T16:07:53;12.60;;;3.03;;
9974;SDS011;5028;50.974;4.968;2023-02-01T16:10:38;10.93;;;2.97;;
9974;SDS011;5028;50.974;4.968;2023-02-01T16:13:08;9.20;;;2.83;;
9974;SDS011;5028;50.974;4.968;2023-02-01T16:15:43;9.50;;;2.90;;
9974;SDS011;5028;50.974;4.968;2023-02-01T16:18:12;15.70;;;3.57;;
9974;SDS011;5028;50.974;4.968;2023-02-01T16:20:49;6.20;;;2.27;;
9974;SDS011;5028;50.974;4.968;2023-02-01T16:23:18;10.80;;;3.30;;
9974;SDS011;5028;50.974;4.968;2023-02-01T16:25:57;8.70;;;2.93;;
9974;SDS011;5028;50.974;4.968;2023-02-01T16:28:25;12.37;;;3.33;;
9974;SDS011;5028;50.974;4.968;2023-02-01T16:31:00;13.50;;;3.50;;
9974;SDS011;5028;50.974;4.968;2023-02-01T16:33:29;10.30;;;3.10;;
9974;SDS011;5028;50.974;4.968;2023-02-01T16:36:07;12.73;;;3.57;;
9974;SDS011;5028;50.974;4.968;2023-02-01T16:38:37;13.53;;;3.93;;
9974;SDS011;5028;50.974;4.968;2023-02-01T16:41:13;10.70;;;3.23;;
9974;SDS011;5028;50.974;4.968;2023-02-01T16:43:42;10.53;;;2.70;;